Time;durP1;ratioP1;P1;durP2;ratioP2;P2;SDS_P1;SDS_P2;PMS_P1;PMS_P2;Temp;Humidity;BMP_temperature;BMP_pressure;BME280_temperature;BME280_humidity;BME280_pressure;Samples;Min_cycle;Max_cycle;Signal;HPM_P1;HPM_P2
2023/12/10 07:42:30;;;;;;;27.30;14.25;;;;;;;7.93;100.00;100394.63;5100607;27;20400;-54
2023/12/10 07:44:55;;;;;;;26.77;14.65;;;;;;;7.95;100.00;100389.59;5094565;28;20040;-55
2023/12/10 07:47:21;;;;;;;25.50;14.85;;;;;;;7.95;100.00;100391.56;5093257;28;20076;-55
2023/12/10 07:49:46;;;;;;;26.55;14.30;;;;;;;7.99;100.00;100397.28;5084023;28;20028;-54
2023/12/10 07:52:11;;;;;;;25.63;14.38;;;;;;;8.02;100.00;100403.00;5083720;28;20067;-52
2023/12/10 07:54:37;;;;;;;24.20;14.68;;;;;;;8.04;100.00;100397.19;5083610;28;20072;-55
2023/12/10 07:57:03;;;;;;;23.95;14.00;;;;;;;8.04;100.00;100420.06;5082494;28;20063;-55
2023/12/10 07:59:28;;;;;;;26.30;14.93;;;;;;;8.07;100.00;100419.47;5084020;28;20068;-56
2023/12/10 08:01:54;;;;;;;26.02;14.65;;;;;;;8.08;100.00;100426.59;5089591;28;20523;-55
2023/12/10 08:04:19;;;;;;;24.30;14.80;;;;;;;8.13;100.00;100439.47;5088215;28;20036;-56
2023/12/10 08:06:45;;;;;;;26.55;14.65;;;;;;;8.15;100.00;100428.16;5089688;28;20124;-54
2023/12/10 08:09:10;;;;;;;27.38;14.05;;;;;;;8.14;100.00;100432.03;5092074;28;20040;-54
2023/12/10 08:11:36;;;;;;;28.40;13.98;;;;;;;8.11;100.00;100450.00;5088635;28;20043;-54
2023/12/10 08:14:01;;;;;;;27.75;14.52;;;;;;;8.13;100.00;100447.72;5091331;28;20055;-55
2023/12/10 08:16:27;;;;;;;27.15;14.18;;;;;;;8.11;100.00;100441.72;5083705;28;20020;-55
2023/12/10 08:18:52;;;;;;;24.73;13.25;;;;;;;8.14;100.00;100451.31;5085637;28;20552;-53
2023/12/10 08:21:17;;;;;;;27.52;13.70;;;;;;;8.14;100.00;100460.41;5093242;28;20044;-55
2023/12/10 08:23:43;;;;;;;23.67;13.65;;;;;;;8.15;100.00;100466.75;5093594;28;20367;-54
2023/12/10 08:26:08;;;;;;;27.17;13.63;;;;;;;8.12;100.00;100452.44;5089144;28;20036;-55
2023/12/10 08:28:34;;;;;;;27.85;14.57;;;;;;;8.14;100.00;100468.66;5087310;28;20051;-55
2023/12/10 08:30:59;;;;;;;27.02;14.10;;;;;;;8.13;100.00;100461.50;5092865;28;20142;-55
2023/12/10 08:33:24;;;;;;;27.95;13.73;;;;;;;8.15;100.00;100462.03;5086016;28;20028;-55
2023/12/10 08:35:50;;;;;;;27.50;14.05;;;;;;;8.16;100.00;100462.88;5087707;28;20055;-56
2023/12/10 08:38:15;;;;;;;27.80;12.95;;;;;;;8.16;100.00;100480.22;5063459;28;20467;-56
2023/12/10 08:40:40;;;;;;;25.75;13.18;;;;;;;8.15;100.00;100484.06;5063341;28;20079;-57
2023/12/10 08:43:06;;;;;;;24.23;12.82;;;;;;;8.12;100.00;100480.00;5061809;28;20543;-57
2023/12/10 08:45:32;;;;;;;22.08;12.68;;;;;;;8.16;100.00;100491.22;5059523;28;20031;-55
2023/12/10 08:47:57;;;;;;;24.50;12.63;;;;;;;8.14;100.00;100498.16;5060038;28;20400;-56
2023/12/10 08:50:23;;;;;;;27.30;13.05;;;;;;;8.12;100.00;100492.97;5067620;28;20430;-56
2023/12/10 08:52:48;;;;;;;26.33;13.25;;;;;;;8.13;100.00;100491.81;5072653;28;20521;-56
2023/12/10 08:55:13;;;;;;;24.77;12.90;;;;;;;8.11;100.00;100494.88;5067143;28;20037;-55
2023/12/10 08:57:39;;;;;;;24.73;13.23;;;;;;;8.11;100.00;100492.13;5067940;28;20040;-56
2023/12/10 09:00:05;;;;;;;27.45;12.88;;;;;;;8.13;100.00;100508.34;5070494;28;20028;-56
2023/12/10 09:02:30;;;;;;;28.38;13.68;;;;;;;8.16;100.00;100496.75;5067014;28;20484;-55
2023/12/10 09:04:56;;;;;;;29.27;14.20;;;;;;;8.17;100.00;100492.88;5069656;28;20012;-56
2023/12/10 09:07:21;;;;;;;26.83;12.93;;;;;;;8.20;100.00;100510.75;5069783;28;20545;-54
2023/12/10 09:09:47;;;;;;;27.05;13.30;;;;;;;8.23;100.00;100512.91;5069835;28;20538;-55
2023/12/10 09:12:12;;;;;;;26.00;13.10;;;;;;;8.23;100.00;100512.91;5069694;28;20098;-54
2023/12/10 09:14:38;;;;;;;24.35;12.57;;;;;;;8.22;100.00;100509.31;5070342;28;20070;-55
2023/12/10 09:17:03;;;;;;;29.10;13.18;;;;;;;8.24;100.00;100518.09;5065978;28;20583;-55
2023/12/10 09:19:31;;;;;;;26.35;13.30;;;;;;;8.23;100.00;100516.47;5068116;28;20025;-54
2023/12/10 09:21:56;;;;;;;26.75;13.30;;;;;;;8.24;100.00;100520.06;5069232;28;20020;-53
2023/12/10 09:24:22;;;;;;;30.45;12.95;;;;;;;8.22;100.00;100520.34;5069372;28;20028;-54
2023/12/10 09:26:48;;;;;;;33.35;13.38;;;;;;;8.23;100.00;100521.97;5069011;28;20032;-54
2023/12/10 09:29:13;;;;;;;29.38;13.05;;;;;;;8.24;100.00;100526.38;5069297;28;20677;-54
2023/12/10 09:31:39;;;;;;;29.10;13.88;;;;;;;8.26;100.00;100523.34;5069443;28;20112;-53
2023/12/10 09:34:04;;;;;;;27.30;13.10;;;;;;;8.23;100.00;100526.69;5070293;28;20024;-54
2023/12/10 09:36:29;;;;;;;27.85;13.40;;;;;;;8.28;100.00;100521.09;5074040;28;20064;-53
2023/12/10 09:38:55;;;;;;;28.00;13.15;;;;;;;8.29;100.00;100522.72;5070552;28;20052;-53
2023/12/10 09:41:20;;;;;;;28.00;13.35;;;;;;;8.31;100.00;100520.50;5069320;28;20052;-55
2023/12/10 09:43:45;;;;;;;30.08;13.02;;;;;;;8.32;100.00;100524.06;5071726;28;20073;-54
2023/12/10 09:46:11;;;;;;;29.95;12.95;;;;;;;8.32;100.00;100526.81;5069039;28;20173;-53
2023/12/10 09:48:41;;;;;;;28.98;13.75;;;;;;;8.28;100.00;100510.91;5069939;28;20025;-54
2023/12/10 09:51:06;;;;;;;24.80;13.32;;;;;;;8.27;100.00;100522.19;5070628;28;20028;-54
2023/12/10 09:53:32;;;;;;;27.45;12.85;;;;;;;8.30;100.00;100521.63;5072806;28;20032;-52
2023/12/10 09:55:57;;;;;;;32.65;13.77;;;;;;;8.30;100.00;100524.38;5068686;28;20086;-52
2023/12/10 09:58:22;;;;;;;28.10;13.13;;;;;;;8.31;100.00;100526.00;5069525;28;20471;-54
2023/12/10 10:00:48;;;;;;;27.48;13.45;;;;;;;8.33;100.00;100515.50;5072030;28;20094;-54
2023/12/10 10:03:14;;;;;;;26.80;13.05;;;;;;;8.34;100.00;100519.06;5069136;28;20029;-53
2023/12/10 10:05:39;;;;;;;27.38;12.65;;;;;;;8.38;100.00;100523.69;5071613;28;20090;-54
2023/12/10 10:08:05;;;;;;;30.70;13.75;;;;;;;8.41;100.00;100533.28;5070423;28;20625;-54
2023/12/10 10:10:30;;;;;;;26.55;13.32;;;;;;;8.40;100.00;100539.94;5074912;28;20486;-53
2023/12/10 10:12:56;;;;;;;28.67;13.00;;;;;;;8.47;100.00;100543.16;5069580;28;20032;-54
2023/12/10 10:15:28;;;;;;;28.38;13.48;;;;;;;8.49;100.00;100549.22;5071351;28;20376;-55
2023/12/10 10:17:54;;;;;;;26.10;12.70;;;;;;;8.52;100.00;100543.06;5068717;28;20040;-55
2023/12/10 10:20:22;;;;;;;26.77;13.02;;;;;;;8.54;100.00;100538.09;5069368;28;20086;-56
2023/12/10 10:22:48;;;;;;;24.38;12.40;;;;;;;8.61;100.00;100532.19;5070116;28;20419;-55
2023/12/10 10:25:14;;;;;;;25.80;12.73;;;;;;;8.67;100.00;100536.50;5069650;28;20028;-54
2023/12/10 10:27:39;;;;;;;29.70;12.70;;;;;;;8.72;100.00;100536.44;5072906;28;20035;-53
2023/12/10 10:30:05;;;;;;;26.15;13.18;;;;;;;8.77;100.00;100532.78;5068060;28;20016;-55
2023/12/10 10:32:32;;;;;;;24.95;12.75;;;;;;;8.82;100.00;100538.19;5071168;28;20041;-54
2023/12/10 10:35:02;;;;;;;29.75;13.18;;;;;;;8.85;100.00;100528.47;5068517;28;20039;-55
2023/12/10 10:37:27;;;;;;;26.55;12.70;;;;;;;8.94;100.00;100531.38;5070660;28;20429;-54
2023/12/10 10:39:53;;;;;;;25.75;13.25;;;;;;;8.99;100.00;100528.50;5077837;28;20079;-54
2023/12/10 10:42:19;;;;;;;24.13;12.45;;;;;;;8.96;100.00;100534.66;5068644;28;20217;-53
2023/12/10 10:44:46;;;;;;;26.98;12.70;;;;;;;8.95;100.00;100539.34;5077569;28;20032;-53
2023/12/10 10:47:11;;;;;;;27.73;12.30;;;;;;;8.91;100.00;100521.78;5072724;28;20028;-52
2023/12/10 10:49:42;;;;;;;28.75;14.60;;;;;;;8.87;100.00;100527.09;5067318;28;20427;-54
2023/12/10 10:52:13;;;;;;;26.00;12.93;;;;;;;8.85;100.00;100515.53;5068189;28;20095;-52
2023/12/10 10:54:39;;;;;;;27.33;14.48;;;;;;;8.84;100.00;100532.34;5076002;28;20067;-54
2023/12/10 10:57:05;;;;;;;26.73;13.48;;;;;;;8.84;100.00;100513.88;5065915;28;20037;-53
2023/12/10 10:59:32;;;;;;;23.27;12.60;;;;;;;8.85;100.00;100522.97;5075762;28;20149;-54
2023/12/10 11:02:04;;;;;;;25.60;13.45;;;;;;;8.81;100.00;100510.91;5071356;28;20033;-56
2023/12/10 11:04:38;;;;;;;26.70;12.70;;;;;;;8.85;100.00;100512.78;5076164;28;20039;-54
2023/12/10 11:07:06;;;;;;;;;;;;;;;8.91;100.00;100505.22;5069220;28;20078;-56
2023/12/10 11:09:56;;;;;;;27.80;14.32;;;;;;;8.95;100.00;100497.97;5067990;28;19920;-54
2023/12/10 11:12:44;;;;;;;25.70;13.07;;;;;;;9.02;100.00;100514.13;5065695;28;20021;-55
2023/12/10 11:15:16;;;;;;;24.00;13.23;;;;;;;9.09;100.00;100517.28;5066890;28;20044;-53
2023/12/10 11:17:59;;;;;;;28.20;13.32;;;;;;;9.11;100.00;100512.31;5065442;28;20392;-53
2023/12/10 11:20:31;;;;;;;24.85;13.10;;;;;;;9.16;100.00;100516.91;5070846;28;20044;-55
2023/12/10 11:22:57;;;;;;;25.80;12.73;;;;;;;9.12;100.00;100516.69;5074072;28;20037;-55
2023/12/10 11:25:22;;;;;;;23.98;12.35;;;;;;;9.13;100.00;100498.19;5078550;28;20037;-54
2023/12/10 11:27:48;;;;;;;23.67;12.48;;;;;;;9.12;100.00;100505.66;5071183;28;20024;-53
2023/12/10 11:30:13;;;;;;;24.38;12.50;;;;;;;9.14;100.00;100511.69;5074914;28;20123;-55
2023/12/10 11:32:39;;;;;;;24.52;12.40;;;;;;;9.21;100.00;100514.88;5069795;28;20147;-54
2023/12/10 11:35:04;;;;;;;25.45;12.20;;;;;;;9.25;100.00;100511.50;5068390;28;20016;-54
2023/12/10 11:37:29;;;;;;;27.20;13.65;;;;;;;9.25;100.00;100495.75;5075632;28;20078;-52
2023/12/10 11:39:55;;;;;;;22.83;12.02;;;;;;;9.27;100.00;100493.50;5079638;28;20103;-52
2023/12/10 11:42:20;;;;;;;24.63;12.70;;;;;;;9.29;100.00;100493.19;5085149;28;20156;-53
2023/12/10 11:44:46;;;;;;;27.55;12.57;;;;;;;9.32;100.00;100495.34;5077365;28;20028;-55
2023/12/10 11:47:11;;;;;;;25.77;12.45;;;;;;;9.34;100.00;100495.88;5068391;28;20094;-54
2023/12/10 11:49:37;;;;;;;23.65;12.38;;;;;;;9.37;100.00;100495.25;5072834;28;20452;-54
2023/12/10 11:52:03;;;;;;;26.83;12.98;;;;;;;9.44;100.00;100503.13;5076606;28;20062;-54
2023/12/10 11:54:29;;;;;;;22.90;13.13;;;;;;;9.48;100.00;100495.88;5085928;28;20024;-53
2023/12/10 11:56:54;;;;;;;29.75;13.55;;;;;;;9.48;100.00;100493.09;5079480;28;20096;-55
2023/12/10 11:59:20;;;;;;;27.15;13.20;;;;;;;9.49;100.00;100490.03;5088426;28;20032;-52
2023/12/10 12:01:46;;;;;;;25.88;12.57;;;;;;;9.49;100.00;100487.28;5080028;28;20029;-54
2023/12/10 12:04:11;;;;;;;27.70;13.90;;;;;;;9.48;100.00;100499.44;5072044;28;20032;-52
2023/12/10 12:06:41;;;;;;;25.45;13.05;;;;;;;9.45;100.00;100502.00;5087996;28;20118;-53
2023/12/10 12:09:08;;;;;;;25.08;13.18;;;;;;;9.41;100.00;100506.47;5088337;28;20051;-52
2023/12/10 12:11:33;;;;;;;31.33;13.77;;;;;;;9.40;100.00;100488.31;5088321;28;20028;-55
2023/12/10 12:14:01;;;;;;;25.42;12.95;;;;;;;9.34;100.00;100493.91;5087970;28;20416;-55
2023/12/10 12:16:26;;;;;;;29.08;14.48;;;;;;;9.35;100.00;100486.47;5087991;28;20055;-52
2023/12/10 12:18:51;;;;;;;27.45;14.40;;;;;;;9.30;100.00;100497.59;5087577;28;20120;-52
2023/12/10 12:21:17;;;;;;;28.52;15.30;;;;;;;9.27;100.00;100500.97;5080645;28;20128;-54
2023/12/10 12:23:42;;;;;;;25.98;14.18;;;;;;;9.28;100.00;100497.91;5068020;28;20364;-54
2023/12/10 12:26:07;;;;;;;30.83;13.38;;;;;;;9.28;100.00;100492.38;5066657;28;20024;-54
2023/12/10 12:28:33;;;;;;;28.95;14.32;;;;;;;9.26;100.00;100469.78;5070232;28;20040;-53
2023/12/10 12:30:58;;;;;;;27.83;13.45;;;;;;;9.27;100.00;100476.13;5071804;28;20368;-54
2023/12/10 12:33:23;;;;;;;28.08;14.43;;;;;;;9.28;100.00;100470.31;5071229;28;20425;-54
2023/12/10 12:35:49;;;;;;;28.77;14.65;;;;;;;9.31;100.00;100455.06;5071177;28;20111;-54
2023/12/10 12:38:14;;;;;;;30.98;16.02;;;;;;;9.36;100.00;100453.03;5071284;28;20028;-53
2023/12/10 12:40:39;;;;;;;29.02;14.52;;;;;;;9.41;100.00;100454.03;5070950;28;20053;-53
2023/12/10 12:43:05;;;;;;;29.63;14.13;;;;;;;9.43;100.00;100446.25;5071183;28;20037;-54
2023/12/10 12:45:30;;;;;;;27.95;13.93;;;;;;;9.43;100.00;100443.50;5071147;28;20035;-55
2023/12/10 12:47:55;;;;;;;31.27;14.85;;;;;;;9.42;100.00;100433.56;5070752;28;20391;-54
2023/12/10 12:50:21;;;;;;;33.70;15.50;;;;;;;9.44;100.00;100423.06;5070588;28;20121;-53
2023/12/10 12:52:47;;;;;;;30.55;14.27;;;;;;;9.43;100.00;100426.94;5068737;28;20028;-55
2023/12/10 12:55:12;;;;;;;32.25;14.93;;;;;;;9.40;100.00;100435.84;5070043;28;20037;-53
2023/12/10 12:57:38;;;;;;;31.15;14.90;;;;;;;9.39;100.00;100435.03;5075469;28;20085;-54
2023/12/10 13:00:05;;;;;;;31.30;14.75;;;;;;;9.41;100.00;100437.47;5085501;28;20028;-54
2023/12/10 13:02:31;;;;;;;32.45;15.80;;;;;;;9.42;100.00;100422.53;5076992;28;20028;-52
2023/12/10 13:04:58;;;;;;;29.80;14.43;;;;;;;9.46;100.00;100432.66;5081273;28;20121;-56
2023/12/10 13:07:24;;;;;;;32.55;15.27;;;;;;;9.44;100.00;100425.81;5073723;28;20043;-56
2023/12/10 13:09:49;;;;;;;30.08;15.57;;;;;;;9.42;100.00;100425.28;5083351;28;20036;-58
2023/12/10 13:12:14;;;;;;;34.45;15.05;;;;;;;9.47;100.00;100426.00;5077538;28;20043;-54
2023/12/10 13:14:40;;;;;;;32.20;16.27;;;;;;;9.48;100.00;100411.06;5072697;28;20063;-55
2023/12/10 13:17:05;;;;;;;34.53;14.98;;;;;;;9.47;100.00;100412.19;5080457;28;20494;-54
2023/12/10 13:19:31;;;;;;;36.13;15.85;;;;;;;9.50;100.00;100428.16;5076357;28;20055;-53
2023/12/10 13:21:57;;;;;;;32.70;15.38;;;;;;;9.51;100.00;100427.03;5080409;28;20028;-53
2023/12/10 13:24:22;;;;;;;34.63;15.65;;;;;;;9.50;100.00;100414.34;5078955;28;20054;-53
2023/12/10 13:26:48;;;;;;;36.72;16.20;;;;;;;9.49;100.00;100426.53;5081271;28;20162;-54
2023/12/10 13:29:14;;;;;;;31.70;15.48;;;;;;;9.48;100.00;100429.59;5077563;28;20760;-54
2023/12/10 13:31:39;;;;;;;30.40;16.38;;;;;;;9.46;100.00;100418.03;5070847;28;20028;-55
2023/12/10 13:34:06;;;;;;;32.10;15.63;;;;;;;9.48;100.00;100416.59;5072506;28;20036;-55
2023/12/10 13:36:31;;;;;;;36.83;17.52;;;;;;;9.42;100.00;100415.09;5068042;28;20437;-53
2023/12/10 13:38:57;;;;;;;34.95;16.00;;;;;;;9.38;100.00;100410.50;5071273;28;20103;-54
2023/12/10 13:41:23;;;;;;;33.55;16.25;;;;;;;9.43;100.00;100413.13;5088455;28;20554;-55
2023/12/10 13:43:48;;;;;;;35.55;17.23;;;;;;;9.37;100.00;100398.63;5089515;28;20052;-55
2023/12/10 13:46:14;;;;;;;29.55;15.45;;;;;;;9.35;100.00;100411.94;5090966;28;20062;-56
2023/12/10 13:48:39;;;;;;;31.75;15.50;;;;;;;9.35;100.00;100406.41;5090999;28;20024;-55
2023/12/10 13:51:05;;;;;;;32.42;14.73;;;;;;;9.37;100.00;100406.91;5090287;28;20136;-56
2023/12/10 13:53:30;;;;;;;32.05;15.65;;;;;;;9.29;100.00;100404.88;5090011;28;20032;-55
2023/12/10 13:55:56;;;;;;;39.03;18.00;;;;;;;9.32;100.00;100398.72;5090096;28;20123;-56
2023/12/10 13:58:22;;;;;;;33.90;15.45;;;;;;;9.32;100.00;100407.00;5072734;28;20089;-54
2023/12/10 14:00:48;;;;;;;34.20;16.05;;;;;;;9.30;100.00;100409.25;5069326;28;20491;-55
2023/12/10 14:03:13;;;;;;;35.58;17.25;;;;;;;9.28;100.00;100389.41;5081190;28;20394;-54
2023/12/10 14:05:38;;;;;;;30.58;16.15;;;;;;;9.30;100.00;100378.91;5090349;28;20020;-55
2023/12/10 14:08:04;;;;;;;29.88;16.33;;;;;;;9.28;100.00;100359.91;5091031;28;20081;-55
2023/12/10 14:10:29;;;;;;;31.25;15.68;;;;;;;9.29;100.00;100349.66;5077203;28;20044;-54
2023/12/10 14:12:55;;;;;;;31.10;15.02;;;;;;;9.29;100.00;100355.19;5070604;28;20028;-55
2023/12/10 14:15:20;;;;;;;38.53;17.00;;;;;;;9.25;100.00;100334.84;5068944;28;20097;-54
2023/12/10 14:17:45;;;;;;;32.05;15.85;;;;;;;9.24;100.00;100328.50;5089011;28;20486;-55
2023/12/10 14:20:11;;;;;;;32.47;15.85;;;;;;;9.25;100.00;100338.41;5089477;28;20202;-55
2023/12/10 14:22:37;;;;;;;30.35;15.02;;;;;;;9.24;100.00;100323.00;5088705;28;20028;-56
2023/12/10 14:25:02;;;;;;;28.27;15.70;;;;;;;9.23;100.00;100321.34;5076497;28;20028;-56
2023/12/10 14:27:28;;;;;;;31.67;15.05;;;;;;;9.21;100.00;100329.13;5075691;28;20028;-55
2023/12/10 14:29:54;;;;;;;33.80;16.88;;;;;;;9.19;100.00;100321.16;5074189;28;20040;-56
2023/12/10 14:32:20;;;;;;;31.52;15.57;;;;;;;9.19;100.00;100312.06;5068991;28;20033;-54
2023/12/10 14:34:46;;;;;;;28.35;15.00;;;;;;;9.13;100.00;100316.88;5069147;28;20043;-56
2023/12/10 14:37:11;;;;;;;26.70;14.38;;;;;;;9.16;100.00;100312.69;5072965;28;20028;-55
2023/12/10 14:39:37;;;;;;;27.30;14.57;;;;;;;9.14;100.00;100299.19;5088904;28;20209;-55
2023/12/10 14:42:03;;;;;;;28.02;14.85;;;;;;;9.13;100.00;100297.56;5076932;28;20055;-56
2023/12/10 14:44:28;;;;;;;27.55;14.52;;;;;;;9.16;100.00;100299.69;5088567;28;20399;-54
2023/12/10 14:46:53;;;;;;;28.80;15.50;;;;;;;9.08;100.00;100296.84;5088561;28;20024;-55
2023/12/10 14:49:19;;;;;;;32.28;15.07;;;;;;;9.08;100.00;100305.13;5088531;28;20106;-55
2023/12/10 14:51:44;;;;;;;29.40;15.13;;;;;;;9.07;100.00;100303.50;5086561;28;20479;-56
2023/12/10 14:54:10;;;;;;;30.17;15.32;;;;;;;9.03;100.00;100301.34;5087956;28;20031;-54
2023/12/10 14:56:35;;;;;;;30.95;15.52;;;;;;;9.02;100.00;100309.94;5086018;28;20016;-55
2023/12/10 14:59:01;;;;;;;28.48;15.43;;;;;;;9.00;100.00;100299.22;5088493;28;20028;-55
2023/12/10 15:01:27;;;;;;;30.83;16.55;;;;;;;9.00;100.00;100293.72;5087891;28;20844;-54
2023/12/10 15:03:53;;;;;;;31.45;16.33;;;;;;;8.99;100.00;100294.84;5087923;28;20573;-54
2023/12/10 15:06:18;;;;;;;32.92;16.75;;;;;;;8.96;100.00;100298.19;5088037;28;20036;-54
2023/12/10 15:08:43;;;;;;;31.75;16.77;;;;;;;8.95;100.00;100287.47;5069344;28;20452;-54
2023/12/10 15:11:09;;;;;;;32.92;16.33;;;;;;;8.97;100.00;100266.72;5067188;28;20107;-55
2023/12/10 15:13:34;;;;;;;33.30;16.90;;;;;;;8.96;100.00;100247.75;5067187;28;20491;-55
2023/12/10 15:16:00;;;;;;;32.38;16.60;;;;;;;8.94;100.00;100244.47;5066646;28;20028;-56
2023/12/10 15:18:25;;;;;;;27.27;15.50;;;;;;;8.93;100.00;100234.56;5066387;28;20044;-54
2023/12/10 15:20:50;;;;;;;28.05;15.60;;;;;;;8.86;100.00;100221.19;5066730;28;20472;-53
2023/12/10 15:23:16;;;;;;;28.08;15.65;;;;;;;8.88;100.00;100230.78;5067017;28;20478;-55
2023/12/10 15:25:41;;;;;;;31.08;15.55;;;;;;;8.83;100.00;100217.09;5065258;28;20410;-54
2023/12/10 15:28:06;;;;;;;29.33;15.40;;;;;;;8.83;100.00;100221.81;5066723;28;20029;-54
2023/12/10 15:30:32;;;;;;;27.73;15.30;;;;;;;8.80;100.00;100203.94;5066903;28;20082;-53
2023/12/10 15:32:59;;;;;;;27.15;15.40;;;;;;;8.76;100.00;100180.03;5079505;28;20032;-53
2023/12/10 15:35:24;;;;;;;28.27;15.43;;;;;;;8.76;100.00;100172.59;5086425;28;20066;-55
2023/12/10 15:37:50;;;;;;;30.67;15.77;;;;;;;8.69;100.00;100167.50;5086843;28;20028;-53
2023/12/10 15:40:15;;;;;;;26.65;14.95;;;;;;;8.64;100.00;100161.28;5069328;28;20036;-54
2023/12/10 15:42:44;;;;;;;26.15;14.82;;;;;;;8.61;100.00;100181.19;5066878;28;20044;-55
2023/12/10 15:45:11;;;;;;;25.38;14.77;;;;;;;8.67;100.00;100189.03;5066945;28;20028;-55
2023/12/10 15:47:37;;;;;;;27.10;14.93;;;;;;;8.64;100.00;100181.41;5066653;28;20093;-55
2023/12/10 15:50:03;;;;;;;25.00;15.00;;;;;;;8.61;100.00;100183.94;5070238;28;20037;-55
2023/12/10 15:52:28;;;;;;;28.48;15.13;;;;;;;8.59;100.00;100170.47;5072287;28;20043;-55
2023/12/10 15:54:54;;;;;;;29.27;15.18;;;;;;;8.57;100.00;100154.25;5074911;28;20119;-56
2023/12/10 15:57:19;;;;;;;25.50;15.23;;;;;;;8.54;100.00;100143.84;5076739;28;20032;-56
2023/12/10 15:59:46;;;;;;;25.50;14.80;;;;;;;8.46;100.00;100130.75;5073836;28;20082;-53
2023/12/10 16:02:12;;;;;;;26.10;15.10;;;;;;;8.46;100.00;100124.41;5080586;28;20039;-52
2023/12/10 16:04:38;;;;;;;30.35;15.25;;;;;;;8.42;100.00;100110.44;5083037;28;20415;-54
2023/12/10 16:07:03;;;;;;;24.10;15.02;;;;;;;8.38;100.00;100106.69;5078469;28;20047;-54
2023/12/10 16:09:28;;;;;;;27.88;15.23;;;;;;;8.34;100.00;100109.25;5078646;28;20491;-54
2023/12/10 16:11:54;;;;;;;26.27;14.18;;;;;;;8.33;100.00;100115.88;5074571;28;20055;-53
2023/12/10 16:14:19;;;;;;;26.08;14.60;;;;;;;8.30;100.00;100093.63;5070339;28;20032;-53
2023/12/10 16:16:45;;;;;;;24.67;15.05;;;;;;;8.27;100.00;100087.63;5070369;28;20107;-51
2023/12/10 16:19:10;;;;;;;25.00;13.88;;;;;;;8.24;100.00;100079.97;5070584;28;20032;-50
2023/12/10 16:21:35;;;;;;;27.05;14.93;;;;;;;8.23;100.00;100049.97;5070142;28;20116;-53
2023/12/10 16:24:01;;;;;;;27.58;14.77;;;;;;;8.21;100.00;100044.78;5073090;28;20406;-52
2023/12/10 16:26:34;;;;;;;27.20;15.05;;;;;;;8.26;100.00;100047.41;5081369;28;20162;-55
2023/12/10 16:29:01;;;;;;;27.40;15.27;;;;;;;8.22;100.00;100034.56;5090180;28;20032;-53
2023/12/10 16:31:27;;;;;;;24.40;14.63;;;;;;;8.18;100.00;100019.75;5086465;28;20059;-54
2023/12/10 16:33:53;;;;;;;27.27;14.65;;;;;;;8.16;100.00;100006.31;5083507;28;20117;-53
2023/12/10 16:36:19;;;;;;;29.45;15.50;;;;;;;8.10;100.00;99985.50;5069382;28;20032;-53
2023/12/10 16:38:44;;;;;;;29.10;15.13;;;;;;;8.09;100.00;99976.41;5069132;28;20042;-53
2023/12/10 16:41:10;;;;;;;25.98;16.00;;;;;;;8.04;100.00;99972.97;5050948;28;20051;-55
2023/12/10 16:43:35;;;;;;;25.63;15.75;;;;;;;7.98;100.00;99961.28;5069761;28;20036;-54
2023/12/10 16:46:00;;;;;;;26.13;15.13;;;;;;;7.93;100.00;99951.19;5069483;28;20020;-55
2023/12/10 16:48:26;;;;;;;27.27;15.30;;;;;;;7.87;100.00;99944.16;5078364;28;20036;-54
2023/12/10 16:50:51;;;;;;;28.73;15.15;;;;;;;7.87;100.00;99929.56;5068344;28;20382;-53
2023/12/10 16:53:17;;;;;;;25.17;14.63;;;;;;;7.83;100.00;99917.53;5069326;28;20502;-54
2023/12/10 16:55:42;;;;;;;27.77;14.90;;;;;;;7.82;100.00;99900.22;5072861;28;20020;-55
2023/12/10 16:58:08;;;;;;;27.50;15.13;;;;;;;7.81;100.00;99901.34;5075577;28;20445;-53
2023/12/10 17:00:34;;;;;;;26.30;14.70;;;;;;;7.80;100.00;99899.72;5072821;28;20077;-55
2023/12/10 17:02:59;;;;;;;27.08;15.45;;;;;;;7.78;100.00;99899.19;5070728;28;20028;-55
2023/12/10 17:05:25;;;;;;;25.35;14.93;;;;;;;7.76;100.00;99901.44;5087456;28;20043;-55
2023/12/10 17:07:50;;;;;;;29.98;15.35;;;;;;;7.74;100.00;99893.50;5088715;28;20055;-55
2023/12/10 17:10:15;;;;;;;27.60;15.15;;;;;;;7.72;100.00;99889.44;5089535;28;20024;-55
2023/12/10 17:12:43;;;;;;;27.20;15.20;;;;;;;7.69;100.00;99879.03;5089703;28;20024;-55
2023/12/10 17:15:09;;;;;;;25.27;15.15;;;;;;;7.67;100.00;99871.09;5063988;28;20033;-55
2023/12/10 17:17:34;;;;;;;26.88;15.52;;;;;;;7.58;100.00;99868.25;5049050;28;20029;-55
2023/12/10 17:19:59;;;;;;;27.00;15.45;;;;;;;7.58;100.00;99848.19;5049379;28;20100;-54
2023/12/10 17:22:25;;;;;;;27.17;15.52;;;;;;;7.51;100.00;99837.59;5049193;28;20032;-53
2023/12/10 17:24:50;;;;;;;25.38;15.38;;;;;;;7.47;100.00;99831.91;5056156;28;20024;-55
2023/12/10 17:27:17;;;;;;;25.80;15.48;;;;;;;7.46;100.00;99826.72;5069436;28;20100;-55
2023/12/10 17:29:43;;;;;;;24.23;15.13;;;;;;;7.40;100.00;99798.50;5089656;28;20040;-55
2023/12/10 17:32:08;;;;;;;27.02;15.70;;;;;;;7.40;100.00;99795.75;5089520;28;20506;-56
2023/12/10 17:34:34;;;;;;;26.58;15.60;;;;;;;7.33;100.00;99787.09;5089240;28;20094;-55
2023/12/10 17:36:59;;;;;;;26.08;15.50;;;;;;;7.32;100.00;99780.78;5089220;28;20071;-54
2023/12/10 17:39:25;;;;;;;25.15;15.48;;;;;;;7.32;100.00;99775.28;5089067;28;20044;-53
2023/12/10 17:41:50;;;;;;;25.77;15.38;;;;;;;7.26;100.00;99756.44;5088985;28;20511;-54
2023/12/10 17:44:19;;;;;;;27.88;16.30;;;;;;;7.28;100.00;99773.47;5089213;28;20060;-55
2023/12/10 17:46:45;;;;;;;27.42;17.17;;;;;;;7.29;100.00;99786.09;5073728;28;20028;-53
2023/12/10 17:49:10;;;;;;;23.27;15.18;;;;;;;7.33;100.00;99771.41;5068838;28;20118;-54
2023/12/10 17:51:35;;;;;;;25.90;15.70;;;;;;;7.31;100.00;99759.09;5066816;28;20102;-55
2023/12/10 17:54:01;;;;;;;24.58;15.15;;;;;;;7.29;100.00;99704.38;5067020;28;20528;-54
2023/12/10 17:56:26;;;;;;;26.65;15.40;;;;;;;7.28;100.00;99729.44;5069863;28;20024;-56
2023/12/10 17:58:52;;;;;;;21.48;15.18;;;;;;;7.28;100.00;99737.69;5077103;28;20091;-55
2023/12/10 18:01:17;;;;;;;24.02;15.20;;;;;;;7.38;100.00;99731.13;5069112;28;20025;-54
2023/12/10 18:03:43;;;;;;;25.23;15.32;;;;;;;7.45;100.00;99746.09;5068514;28;20452;-54
2023/12/10 18:06:08;;;;;;;24.23;15.75;;;;;;;7.43;100.00;99737.31;5068828;28;20040;-58
2023/12/10 18:08:34;;;;;;;25.33;15.88;;;;;;;7.45;100.00;99737.03;5082518;28;20032;-54
2023/12/10 18:11:00;;;;;;;21.02;15.55;;;;;;;7.41;100.00;99720.34;5088196;28;20043;-56
2023/12/10 18:13:26;;;;;;;25.00;15.98;;;;;;;7.40;100.00;99710.44;5088652;28;20543;-54
2023/12/10 18:15:51;;;;;;;24.95;15.50;;;;;;;7.40;100.00;99713.22;5088896;28;20065;-55
2023/12/10 18:18:16;;;;;;;21.17;14.68;;;;;;;7.42;100.00;99699.13;5088656;28;20399;-55
2023/12/10 18:20:42;;;;;;;21.35;14.95;;;;;;;7.39;100.00;99697.81;5088342;28;20032;-55
2023/12/10 18:23:07;;;;;;;24.70;17.08;;;;;;;7.46;100.00;99733.16;5087892;28;20051;-54
2023/12/10 18:25:33;;;;;;;22.50;15.40;;;;;;;7.51;100.00;99738.53;5087201;28;20034;-54
2023/12/10 18:27:58;;;;;;;22.70;16.67;;;;;;;7.55;100.00;99734.03;5085735;28;20559;-54
2023/12/10 18:30:28;;;;;;;23.20;16.13;;;;;;;7.55;100.00;99706.50;5068585;28;20036;-56
2023/12/10 18:32:53;;;;;;;21.13;16.27;;;;;;;7.57;100.00;99679.47;5068756;28;20550;-54
2023/12/10 18:35:21;;;;;;;22.30;15.48;;;;;;;7.64;100.00;99668.00;5068843;28;20059;-56
2023/12/10 18:37:47;;;;;;;24.40;17.65;;;;;;;7.61;100.00;99658.44;5068384;28;20380;-58
2023/12/10 18:40:13;;;;;;;19.45;15.20;;;;;;;7.64;100.00;99665.25;5068685;28;20460;-55
2023/12/10 18:42:39;;;;;;;24.70;18.15;;;;;;;7.78;100.00;99684.44;5068010;28;20131;-53
2023/12/10 18:45:05;;;;;;;20.35;16.05;;;;;;;7.75;100.00;99677.63;5068455;28;20020;-55
2023/12/10 18:47:30;;;;;;;22.15;16.52;;;;;;;7.79;100.00;99675.84;5068490;28;20029;-55